sensor_id;sensor_type;location;lat;lon;timestamp;P1;durP1;ratioP1;P2;durP2;ratioP2
4106;SDS011;21906;50.812;7.132;2024-03-25T00:01:23;11.00;;;3.97;;
4106;SDS011;21906;50.812;7.132;2024-03-25T00:03:50;7.20;;;3.23;;
4106;SDS011;21906;50.812;7.132;2024-03-25T00:06:16;9.47;;;3.60;;
4106;SDS011;21906;50.812;7.132;2024-03-25T00:08:42;7.23;;;3.90;;
4106;SDS011;21906;50.812;7.132;2024-03-25T00:11:08;10.17;;;3.70;;
4106;SDS011;21906;50.812;7.132;2024-03-25T00:13:33;9.53;;;4.57;;
4106;SDS011;21906;50.812;7.132;2024-03-25T00:15:59;8.57;;;3.60;;
4106;SDS011;21906;50.812;7.132;2024-03-25T00:18:25;8.20;;;4.20;;
4106;SDS011;21906;50.812;7.132;2024-03-25T00:20:51;8.33;;;4.17;;
4106;SDS011;21906;50.812;7.132;2024-03-25T00:23:17;13.43;;;3.63;;
4106;SDS011;21906;50.812;7.132;2024-03-25T00:25:42;20.63;;;4.37;;
4106;SDS011;21906;50.812;7.132;2024-03-25T00:28:08;6.23;;;3.40;;
4106;SDS011;21906;50.812;7.132;2024-03-25T00:30:34;15.60;;;3.80;;
4106;SDS011;21906;50.812;7.132;2024-03-25T00:33:03;9.00;;;3.27;;
4106;SDS011;21906;50.812;7.132;2024-03-25T00:35:28;16.90;;;3.47;;
4106;SDS011;21906;50.812;7.132;2024-03-25T00:37:54;5.67;;;3.23;;
4106;SDS011;21906;50.812;7.132;2024-03-25T00:40:20;14.00;;;4.20;;
4106;SDS011;21906;50.812;7.132;2024-03-25T00:42:46;12.27;;;3.50;;
4106;SDS011;21906;50.812;7.132;2024-03-25T00:45:12;7.10;;;3.53;;
4106;SDS011;21906;50.812;7.132;2024-03-25T00:47:38;7.97;;;3.23;;
4106;SDS011;21906;50.812;7.132;2024-03-25T00:50:04;11.23;;;3.90;;
4106;SDS011;21906;50.812;7.132;2024-03-25T00:52:30;7.00;;;3.33;;
4106;SDS011;21906;50.812;7.132;2024-03-25T00:54:56;9.03;;;3.80;;
4106;SDS011;21906;50.812;7.132;2024-03-25T00:57:22;11.97;;;4.40;;
4106;SDS011;21906;50.812;7.132;2024-03-25T00:59:47;8.40;;;4.00;;
4106;SDS011;21906;50.812;7.132;2024-03-25T01:02:13;12.97;;;4.40;;
4106;SDS011;21906;50.812;7.132;2024-03-25T01:04:39;10.43;;;4.60;;
4106;SDS011;21906;50.812;7.132;2024-03-25T01:07:05;8.30;;;4.33;;
4106;SDS011;21906;50.812;7.132;2024-03-25T01:09:30;7.97;;;4.27;;
4106;SDS011;21906;50.812;7.132;2024-03-25T01:11:56;11.53;;;4.10;;
4106;SDS011;21906;50.812;7.132;2024-03-25T01:14:22;12.37;;;4.00;;
4106;SDS011;21906;50.812;7.132;2024-03-25T01:16:48;11.30;;;3.80;;
4106;SDS011;21906;50.812;7.132;2024-03-25T01:19:13;10.50;;;3.80;;
4106;SDS011;21906;50.812;7.132;2024-03-25T01:21:39;8.93;;;4.10;;
4106;SDS011;21906;50.812;7.132;2024-03-25T01:24:05;13.43;;;4.30;;
4106;SDS011;21906;50.812;7.132;2024-03-25T01:26:31;6.80;;;3.80;;
4106;SDS011;21906;50.812;7.132;2024-03-25T01:28:56;9.80;;;4.00;;
4106;SDS011;21906;50.812;7.132;2024-03-25T01:31:22;11.07;;;3.97;;
4106;SDS011;21906;50.812;7.132;2024-03-25T01:33:48;10.50;;;3.90;;
4106;SDS011;21906;50.812;7.132;2024-03-25T01:36:13;8.93;;;3.90;;
4106;SDS011;21906;50.812;7.132;2024-03-25T01:38:43;12.37;;;4.60;;
4106;SDS011;21906;50.812;7.132;2024-03-25T01:41:10;9.67;;;4.50;;
4106;SDS011;21906;50.812;7.132;2024-03-25T01:43:37;10.10;;;5.23;;
4106;SDS011;21906;50.812;7.132;2024-03-25T01:46:03;10.70;;;3.67;;
4106;SDS011;21906;50.812;7.132;2024-03-25T01:48:30;8.20;;;3.83;;
4106;SDS011;21906;50.812;7.132;2024-03-25T01:50:56;12.40;;;3.87;;
4106;SDS011;21906;50.812;7.132;2024-03-25T01:53:23;10.47;;;3.50;;
4106;SDS011;21906;50.812;7.132;2024-03-25T01:55:50;9.00;;;3.20;;
4106;SDS011;21906;50.812;7.132;2024-03-25T01:58:19;10.73;;;3.60;;
4106;SDS011;21906;50.812;7.132;2024-03-25T02:00:45;10.43;;;4.10;;
4106;SDS011;21906;50.812;7.132;2024-03-25T02:03:11;9.23;;;3.20;;
4106;SDS011;21906;50.812;7.132;2024-03-25T02:05:39;8.37;;;3.53;;
4106;SDS011;21906;50.812;7.132;2024-03-25T02:08:05;10.93;;;3.40;;
4106;SDS011;21906;50.812;7.132;2024-03-25T02:10:32;8.80;;;3.00;;
4106;SDS011;21906;50.812;7.132;2024-03-25T02:12:58;10.90;;;3.40;;
4106;SDS011;21906;50.812;7.132;2024-03-25T02:15:24;13.10;;;3.50;;
4106;SDS011;21906;50.812;7.132;2024-03-25T02:17:51;6.30;;;3.07;;
4106;SDS011;21906;50.812;7.132;2024-03-25T02:20:17;11.33;;;3.40;;
4106;SDS011;21906;50.812;7.132;2024-03-25T02:22:43;17.23;;;4.13;;
4106;SDS011;21906;50.812;7.132;2024-03-25T02:25:09;6.37;;;3.40;;
4106;SDS011;21906;50.812;7.132;2024-03-25T02:27:36;6.57;;;3.00;;
4106;SDS011;21906;50.812;7.132;2024-03-25T02:30:06;8.60;;;3.03;;
4106;SDS011;21906;50.812;7.132;2024-03-25T02:32:34;8.73;;;2.93;;
4106;SDS011;21906;50.812;7.132;2024-03-25T02:35:01;7.90;;;3.17;;
4106;SDS011;21906;50.812;7.132;2024-03-25T02:37:29;11.07;;;3.43;;
4106;SDS011;21906;50.812;7.132;2024-03-25T02:39:57;10.20;;;3.67;;
4106;SDS011;21906;50.812;7.132;2024-03-25T02:42:24;10.77;;;3.47;;
4106;SDS011;21906;50.812;7.132;2024-03-25T02:44:56;7.80;;;3.03;;
4106;SDS011;21906;50.812;7.132;2024-03-25T02:47:22;8.30;;;3.70;;
4106;SDS011;21906;50.812;7.132;2024-03-25T02:49:49;11.63;;;3.10;;
4106;SDS011;21906;50.812;7.132;2024-03-25T02:52:14;10.10;;;2.93;;
4106;SDS011;21906;50.812;7.132;2024-03-25T02:54:41;10.70;;;3.30;;
4106;SDS011;21906;50.812;7.132;2024-03-25T02:57:06;6.83;;;3.10;;
4106;SDS011;21906;50.812;7.132;2024-03-25T02:59:32;10.43;;;3.67;;
4106;SDS011;21906;50.812;7.132;2024-03-25T03:01:57;7.07;;;3.40;;
4106;SDS011;21906;50.812;7.132;2024-03-25T03:04:23;11.53;;;3.70;;
4106;SDS011;21906;50.812;7.132;2024-03-25T03:06:49;17.10;;;3.70;;
4106;SDS011;21906;50.812;7.132;2024-03-25T03:09:17;9.30;;;2.93;;
4106;SDS011;21906;50.812;7.132;2024-03-25T03:11:43;6.70;;;2.90;;
4106;SDS011;21906;50.812;7.132;2024-03-25T03:14:09;5.23;;;2.60;;
4106;SDS011;21906;50.812;7.132;2024-03-25T03:16:37;12.03;;;3.40;;
4106;SDS011;21906;50.812;7.132;2024-03-25T03:19:03;9.33;;;3.40;;
4106;SDS011;21906;50.812;7.132;2024-03-25T03:21:28;8.93;;;3.23;;
4106;SDS011;21906;50.812;7.132;2024-03-25T03:23:57;6.13;;;3.10;;
4106;SDS011;21906;50.812;7.132;2024-03-25T03:26:23;8.47;;;2.83;;
4106;SDS011;21906;50.812;7.132;2024-03-25T03:28:55;8.20;;;3.50;;
4106;SDS011;21906;50.812;7.132;2024-03-25T03:31:21;13.07;;;3.63;;
4106;SDS011;21906;50.812;7.132;2024-03-25T03:33:47;8.23;;;2.90;;
4106;SDS011;21906;50.812;7.132;2024-03-25T03:36:15;8.23;;;3.10;;
4106;SDS011;21906;50.812;7.132;2024-03-25T03:38:41;7.50;;;3.83;;
4106;SDS011;21906;50.812;7.132;2024-03-25T03:41:07;8.93;;;3.47;;
4106;SDS011;21906;50.812;7.132;2024-03-25T03:43:33;8.10;;;3.60;;
4106;SDS011;21906;50.812;7.132;2024-03-25T03:45:58;8.20;;;3.23;;
4106;SDS011;21906;50.812;7.132;2024-03-25T03:48:24;7.80;;;3.40;;
4106;SDS011;21906;50.812;7.132;2024-03-25T03:50:50;7.80;;;3.33;;
4106;SDS011;21906;50.812;7.132;2024-03-25T03:53:16;6.13;;;3.27;;
4106;SDS011;21906;50.812;7.132;2024-03-25T03:55:42;12.67;;;3.87;;
4106;SDS011;21906;50.812;7.132;2024-03-25T03:58:17;10.93;;;3.10;;
4106;SDS011;21906;50.812;7.132;2024-03-25T04:00:43;8.20;;;2.97;;
4106;SDS011;21906;50.812;7.132;2024-03-25T04:03:08;9.97;;;3.77;;
4106;SDS011;21906;50.812;7.132;2024-03-25T04:05:34;8.90;;;4.00;;
4106;SDS011;21906;50.812;7.132;2024-03-25T04:08:06;7.53;;;3.10;;
4106;SDS011;21906;50.812;7.132;2024-03-25T04:10:33;14.23;;;3.30;;
4106;SDS011;21906;50.812;7.132;2024-03-25T04:13:02;11.50;;;3.10;;
4106;SDS011;21906;50.812;7.132;2024-03-25T04:15:28;10.30;;;3.20;;
4106;SDS011;21906;50.812;7.132;2024-03-25T04:17:54;9.50;;;3.37;;
4106;SDS011;21906;50.812;7.132;2024-03-25T04:20:20;9.50;;;3.47;;
4106;SDS011;21906;50.812;7.132;2024-03-25T04:22:46;9.83;;;3.33;;
4106;SDS011;21906;50.812;7.132;2024-03-25T04:25:13;8.97;;;3.20;;
4106;SDS011;21906;50.812;7.132;2024-03-25T04:27:44;8.03;;;3.00;;
4106;SDS011;21906;50.812;7.132;2024-03-25T04:30:10;7.93;;;3.10;;
4106;SDS011;21906;50.812;7.132;2024-03-25T04:32:36;10.67;;;3.20;;
4106;SDS011;21906;50.812;7.132;2024-03-25T04:35:07;7.67;;;2.97;;
4106;SDS011;21906;50.812;7.132;2024-03-25T04:37:33;8.87;;;2.63;;
4106;SDS011;21906;50.812;7.132;2024-03-25T04:40:00;8.97;;;2.97;;
4106;SDS011;21906;50.812;7.132;2024-03-25T04:42:26;7.00;;;2.70;;
4106;SDS011;21906;50.812;7.132;2024-03-25T04:44:52;6.63;;;2.70;;
4106;SDS011;21906;50.812;7.132;2024-03-25T04:47:18;8.33;;;3.00;;
4106;SDS011;21906;50.812;7.132;2024-03-25T04:49:43;5.93;;;2.80;;
4106;SDS011;21906;50.812;7.132;2024-03-25T04:52:13;7.80;;;3.10;;
4106;SDS011;21906;50.812;7.132;2024-03-25T04:54:42;5.27;;;2.90;;
4106;SDS011;21906;50.812;7.132;2024-03-25T04:57:08;5.10;;;3.00;;
4106;SDS011;21906;50.812;7.132;2024-03-25T04:59:34;6.80;;;3.20;;
4106;SDS011;21906;50.812;7.132;2024-03-25T05:01:59;8.60;;;3.27;;
4106;SDS011;21906;50.812;7.132;2024-03-25T05:04:25;15.20;;;3.37;;
4106;SDS011;21906;50.812;7.132;2024-03-25T05:06:51;11.00;;;3.13;;
4106;SDS011;21906;50.812;7.132;2024-03-25T05:09:17;6.07;;;2.70;;
4106;SDS011;21906;50.812;7.132;2024-03-25T05:11:42;12.40;;;3.10;;
4106;SDS011;21906;50.812;7.132;2024-03-25T05:14:08;5.70;;;2.80;;
4106;SDS011;21906;50.812;7.132;2024-03-25T05:16:34;8.60;;;3.60;;
4106;SDS011;21906;50.812;7.132;2024-03-25T05:18:59;9.00;;;3.07;;
4106;SDS011;21906;50.812;7.132;2024-03-25T05:21:25;12.83;;;3.10;;
4106;SDS011;21906;50.812;7.132;2024-03-25T05:23:51;10.67;;;3.00;;
4106;SDS011;21906;50.812;7.132;2024-03-25T05:26:16;10.90;;;3.57;;
4106;SDS011;21906;50.812;7.132;2024-03-25T05:28:42;9.83;;;3.47;;
4106;SDS011;21906;50.812;7.132;2024-03-25T05:31:08;10.07;;;3.50;;
4106;SDS011;21906;50.812;7.132;2024-03-25T05:33:34;6.80;;;3.03;;
4106;SDS011;21906;50.812;7.132;2024-03-25T05:36:00;7.27;;;3.30;;
4106;SDS011;21906;50.812;7.132;2024-03-25T05:38:27;13.83;;;4.00;;
4106;SDS011;21906;50.812;7.132;2024-03-25T05:40:53;7.90;;;3.33;;
4106;SDS011;21906;50.812;7.132;2024-03-25T05:43:18;13.87;;;3.93;;
4106;SDS011;21906;50.812;7.132;2024-03-25T05:45:54;7.53;;;3.40;;
4106;SDS011;21906;50.812;7.132;2024-03-25T05:48:21;9.33;;;3.90;;
4106;SDS011;21906;50.812;7.132;2024-03-25T05:51:04;5.67;;;3.60;;
4106;SDS011;21906;50.812;7.132;2024-03-25T05:53:31;6.93;;;3.17;;
4106;SDS011;21906;50.812;7.132;2024-03-25T05:55:57;6.83;;;3.70;;
4106;SDS011;21906;50.812;7.132;2024-03-25T05:58:25;11.30;;;4.37;;
4106;SDS011;21906;50.812;7.132;2024-03-25T06:00:51;8.00;;;4.50;;
4106;SDS011;21906;50.812;7.132;2024-03-25T06:03:21;10.63;;;4.13;;
4106;SDS011;21906;50.812;7.132;2024-03-25T06:05:47;6.37;;;3.80;;
4106;SDS011;21906;50.812;7.132;2024-03-25T06:08:13;11.47;;;4.23;;
4106;SDS011;21906;50.812;7.132;2024-03-25T06:10:51;11.97;;;4.33;;
4106;SDS011;21906;50.812;7.132;2024-03-25T06:13:17;9.50;;;4.30;;
4106;SDS011;21906;50.812;7.132;2024-03-25T06:15:42;12.63;;;5.20;;
4106;SDS011;21906;50.812;7.132;2024-03-25T06:18:08;7.10;;;3.80;;
4106;SDS011;21906;50.812;7.132;2024-03-25T06:20:34;14.03;;;4.60;;
4106;SDS011;21906;50.812;7.132;2024-03-25T06:23:00;8.07;;;3.63;;
4106;SDS011;21906;50.812;7.132;2024-03-25T06:25:26;12.73;;;3.90;;
4106;SDS011;21906;50.812;7.132;2024-03-25T06:27:53;11.43;;;5.00;;
4106;SDS011;21906;50.812;7.132;2024-03-25T06:30:22;8.97;;;3.60;;
4106;SDS011;21906;50.812;7.132;2024-03-25T06:33:06;6.53;;;3.40;;
4106;SDS011;21906;50.812;7.132;2024-03-25T06:35:50;10.93;;;4.27;;
4106;SDS011;21906;50.812;7.132;2024-03-25T06:38:17;10.10;;;3.63;;
4106;SDS011;21906;50.812;7.132;2024-03-25T06:40:42;9.00;;;5.43;;
4106;SDS011;21906;50.812;7.132;2024-03-25T06:43:10;11.13;;;4.20;;
4106;SDS011;21906;50.812;7.132;2024-03-25T06:45:35;8.47;;;4.03;;
4106;SDS011;21906;50.812;7.132;2024-03-25T06:48:01;7.47;;;3.47;;
4106;SDS011;21906;50.812;7.132;2024-03-25T06:50:27;9.40;;;3.43;;
4106;SDS011;21906;50.812;7.132;2024-03-25T06:52:52;5.43;;;3.23;;
4106;SDS011;21906;50.812;7.132;2024-03-25T06:55:18;12.50;;;4.03;;
4106;SDS011;21906;50.812;7.132;2024-03-25T06:57:47;7.97;;;3.50;;
4106;SDS011;21906;50.812;7.132;2024-03-25T07:00:13;10.80;;;4.00;;
4106;SDS011;21906;50.812;7.132;2024-03-25T07:02:39;17.83;;;4.73;;
4106;SDS011;21906;50.812;7.132;2024-03-25T07:05:05;6.93;;;3.30;;
4106;SDS011;21906;50.812;7.132;2024-03-25T07:07:32;7.00;;;3.33;;
4106;SDS011;21906;50.812;7.132;2024-03-25T07:09:58;7.80;;;3.60;;
4106;SDS011;21906;50.812;7.132;2024-03-25T07:12:25;5.70;;;3.10;;
4106;SDS011;21906;50.812;7.132;2024-03-25T07:14:50;24.03;;;5.57;;
4106;SDS011;21906;50.812;7.132;2024-03-25T07:17:16;7.20;;;3.73;;
4106;SDS011;21906;50.812;7.132;2024-03-25T07:19:42;8.10;;;3.50;;
4106;SDS011;21906;50.812;7.132;2024-03-25T07:22:10;4.77;;;3.00;;
4106;SDS011;21906;50.812;7.132;2024-03-25T07:24:36;8.10;;;4.33;;
4106;SDS011;21906;50.812;7.132;2024-03-25T07:27:01;8.77;;;3.13;;
4106;SDS011;21906;50.812;7.132;2024-03-25T07:29:27;6.57;;;2.93;;
4106;SDS011;21906;50.812;7.132;2024-03-25T07:31:53;6.10;;;3.00;;
4106;SDS011;21906;50.812;7.132;2024-03-25T07:34:19;8.57;;;3.40;;
4106;SDS011;21906;50.812;7.132;2024-03-25T07:36:44;8.20;;;3.70;;
4106;SDS011;21906;50.812;7.132;2024-03-25T07:39:10;6.27;;;3.40;;
4106;SDS011;21906;50.812;7.132;2024-03-25T07:41:36;7.00;;;2.90;;
4106;SDS011;21906;50.812;7.132;2024-03-25T07:44:02;4.17;;;3.00;;
4106;SDS011;21906;50.812;7.132;2024-03-25T07:46:29;5.67;;;3.20;;
4106;SDS011;21906;50.812;7.132;2024-03-25T07:48:55;6.90;;;2.77;;
4106;SDS011;21906;50.812;7.132;2024-03-25T07:51:21;7.20;;;2.90;;
4106;SDS011;21906;50.812;7.132;2024-03-25T07:53:47;6.60;;;3.03;;
4106;SDS011;21906;50.812;7.132;2024-03-25T07:56:12;8.33;;;3.53;;
4106;SDS011;21906;50.812;7.132;2024-03-25T07:58:40;10.13;;;3.30;;
4106;SDS011;21906;50.812;7.132;2024-03-25T08:01:06;6.50;;;3.20;;
4106;SDS011;21906;50.812;7.132;2024-03-25T08:03:31;3.97;;;2.70;;
4106;SDS011;21906;50.812;7.132;2024-03-25T08:05:58;4.93;;;3.10;;
4106;SDS011;21906;50.812;7.132;2024-03-25T08:08:24;8.90;;;3.10;;
4106;SDS011;21906;50.812;7.132;2024-03-25T08:10:50;4.80;;;2.80;;
4106;SDS011;21906;50.812;7.132;2024-03-25T08:13:17;3.67;;;3.00;;
4106;SDS011;21906;50.812;7.132;2024-03-25T08:15:45;3.73;;;2.90;;
4106;SDS011;21906;50.812;7.132;2024-03-25T08:18:10;5.20;;;2.60;;
4106;SDS011;21906;50.812;7.132;2024-03-25T08:20:37;7.10;;;2.93;;
4106;SDS011;21906;50.812;7.132;2024-03-25T08:23:03;9.50;;;3.47;;
4106;SDS011;21906;50.812;7.132;2024-03-25T08:25:29;7.97;;;3.10;;
4106;SDS011;21906;50.812;7.132;2024-03-25T08:27:55;7.27;;;2.90;;
4106;SDS011;21906;50.812;7.132;2024-03-25T08:30:20;7.37;;;3.50;;
4106;SDS011;21906;50.812;7.132;2024-03-25T08:32:46;6.00;;;2.80;;
4106;SDS011;21906;50.812;7.132;2024-03-25T08:35:12;4.13;;;2.83;;
4106;SDS011;21906;50.812;7.132;2024-03-25T08:37:37;11.20;;;3.07;;
4106;SDS011;21906;50.812;7.132;2024-03-25T08:40:04;5.77;;;2.77;;
4106;SDS011;21906;50.812;7.132;2024-03-25T08:42:30;5.80;;;2.40;;
4106;SDS011;21906;50.812;7.132;2024-03-25T08:44:55;7.93;;;2.93;;
4106;SDS011;21906;50.812;7.132;2024-03-25T08:47:22;6.40;;;2.77;;
4106;SDS011;21906;50.812;7.132;2024-03-25T08:49:47;7.47;;;2.80;;
4106;SDS011;21906;50.812;7.132;2024-03-25T08:52:13;11.53;;;3.53;;
4106;SDS011;21906;50.812;7.132;2024-03-25T08:54:39;3.50;;;2.40;;
4106;SDS011;21906;50.812;7.132;2024-03-25T08:57:04;5.43;;;2.63;;
4106;SDS011;21906;50.812;7.132;2024-03-25T08:59:30;7.97;;;2.47;;
4106;SDS011;21906;50.812;7.132;2024-03-25T09:01:56;9.53;;;2.57;;
4106;SDS011;21906;50.812;7.132;2024-03-25T09:04:22;6.10;;;2.43;;
4106;SDS011;21906;50.812;7.132;2024-03-25T09:06:47;3.40;;;2.23;;
4106;SDS011;21906;50.812;7.132;2024-03-25T09:09:13;7.03;;;2.33;;
4106;SDS011;21906;50.812;7.132;2024-03-25T09:11:57;6.07;;;2.20;;
4106;SDS011;21906;50.812;7.132;2024-03-25T09:14:24;6.73;;;3.50;;
4106;SDS011;21906;50.812;7.132;2024-03-25T09:16:49;7.03;;;2.23;;
4106;SDS011;21906;50.812;7.132;2024-03-25T09:19:15;6.43;;;2.13;;
4106;SDS011;21906;50.812;7.132;2024-03-25T09:21:41;5.60;;;2.27;;
4106;SDS011;21906;50.812;7.132;2024-03-25T09:24:11;4.67;;;2.23;;
4106;SDS011;21906;50.812;7.132;2024-03-25T09:26:37;4.17;;;1.83;;
4106;SDS011;21906;50.812;7.132;2024-03-25T09:29:02;8.43;;;2.80;;
4106;SDS011;21906;50.812;7.132;2024-03-25T09:31:28;5.30;;;2.10;;
4106;SDS011;21906;50.812;7.132;2024-03-25T09:33:54;9.70;;;3.10;;
4106;SDS011;21906;50.812;7.132;2024-03-25T09:36:20;5.27;;;2.20;;
4106;SDS011;21906;50.812;7.132;2024-03-25T09:38:45;5.50;;;2.40;;
4106;SDS011;21906;50.812;7.132;2024-03-25T09:41:11;14.73;;;3.10;;
4106;SDS011;21906;50.812;7.132;2024-03-25T09:43:42;7.80;;;2.80;;
4106;SDS011;21906;50.812;7.132;2024-03-25T09:46:12;4.57;;;2.50;;
4106;SDS011;21906;50.812;7.132;2024-03-25T09:48:38;8.30;;;2.20;;
4106;SDS011;21906;50.812;7.132;2024-03-25T09:51:06;9.47;;;2.57;;
4106;SDS011;21906;50.812;7.132;2024-03-25T09:53:34;5.40;;;2.47;;
4106;SDS011;21906;50.812;7.132;2024-03-25T09:56:00;9.70;;;2.87;;
4106;SDS011;21906;50.812;7.132;2024-03-25T09:58:26;8.73;;;2.33;;
4106;SDS011;21906;50.812;7.132;2024-03-25T10:00:52;8.03;;;2.27;;
4106;SDS011;21906;50.812;7.132;2024-03-25T10:03:20;6.73;;;2.20;;
4106;SDS011;21906;50.812;7.132;2024-03-25T10:05:46;6.97;;;2.40;;
4106;SDS011;21906;50.812;7.132;2024-03-25T10:08:12;3.97;;;2.07;;
4106;SDS011;21906;50.812;7.132;2024-03-25T10:10:37;2.40;;;2.10;;
4106;SDS011;21906;50.812;7.132;2024-03-25T10:13:03;5.03;;;2.30;;
4106;SDS011;21906;50.812;7.132;2024-03-25T10:15:30;5.90;;;2.73;;
4106;SDS011;21906;50.812;7.132;2024-03-25T10:17:56;4.33;;;2.73;;
4106;SDS011;21906;50.812;7.132;2024-03-25T10:20:22;4.23;;;2.33;;
4106;SDS011;21906;50.812;7.132;2024-03-25T10:22:47;6.90;;;2.60;;
4106;SDS011;21906;50.812;7.132;2024-03-25T10:25:27;6.43;;;2.60;;
4106;SDS011;21906;50.812;7.132;2024-03-25T10:27:57;6.67;;;2.40;;
4106;SDS011;21906;50.812;7.132;2024-03-25T10:30:24;5.40;;;2.13;;
4106;SDS011;21906;50.812;7.132;2024-03-25T10:33:03;3.90;;;2.30;;
4106;SDS011;21906;50.812;7.132;2024-03-25T10:35:31;6.33;;;2.13;;
4106;SDS011;21906;50.812;7.132;2024-03-25T10:37:59;7.60;;;3.30;;
4106;SDS011;21906;50.812;7.132;2024-03-25T10:40:27;6.30;;;2.07;;
4106;SDS011;21906;50.812;7.132;2024-03-25T10:43:13;2.97;;;2.50;;
4106;SDS011;21906;50.812;7.132;2024-03-25T10:45:42;4.03;;;2.50;;
4106;SDS011;21906;50.812;7.132;2024-03-25T10:48:19;2.50;;;1.87;;
4106;SDS011;21906;50.812;7.132;2024-03-25T10:50:56;3.57;;;1.90;;
4106;SDS011;21906;50.812;7.132;2024-03-25T10:53:24;5.57;;;2.70;;
4106;SDS011;21906;50.812;7.132;2024-03-25T10:55:55;6.43;;;2.40;;
4106;SDS011;21906;50.812;7.132;2024-03-25T10:58:22;5.03;;;2.27;;
4106;SDS011;21906;50.812;7.132;2024-03-25T11:00:50;4.07;;;2.10;;
4106;SDS011;21906;50.812;7.132;2024-03-25T11:03:17;4.73;;;2.50;;
4106;SDS011;21906;50.812;7.132;2024-03-25T11:05:43;6.50;;;2.63;;
4106;SDS011;21906;50.812;7.132;2024-03-25T11:08:13;6.23;;;2.50;;
4106;SDS011;21906;50.812;7.132;2024-03-25T11:10:43;5.67;;;2.80;;
4106;SDS011;21906;50.812;7.132;2024-03-25T11:13:12;6.93;;;2.97;;
4106;SDS011;21906;50.812;7.132;2024-03-25T11:15:44;4.13;;;2.00;;
4106;SDS011;21906;50.812;7.132;2024-03-25T11:18:15;4.80;;;2.17;;
4106;SDS011;21906;50.812;7.132;2024-03-25T11:20:41;4.17;;;2.47;;
4106;SDS011;21906;50.812;7.132;2024-03-25T11:23:09;3.80;;;2.27;;
4106;SDS011;21906;50.812;7.132;2024-03-25T11:25:35;5.07;;;2.70;;
4106;SDS011;21906;50.812;7.132;2024-03-25T11:28:02;3.57;;;2.80;;
4106;SDS011;21906;50.812;7.132;2024-03-25T11:30:28;4.60;;;2.80;;
4106;SDS011;21906;50.812;7.132;2024-03-25T11:32:56;5.37;;;2.83;;
4106;SDS011;21906;50.812;7.132;2024-03-25T11:35:23;6.83;;;2.20;;
4106;SDS011;21906;50.812;7.132;2024-03-25T11:37:49;3.73;;;2.97;;
4106;SDS011;21906;50.812;7.132;2024-03-25T11:40:17;8.10;;;2.50;;
4106;SDS011;21906;50.812;7.132;2024-03-25T11:42:44;5.50;;;2.43;;
4106;SDS011;21906;50.812;7.132;2024-03-25T11:45:15;2.67;;;2.17;;
4106;SDS011;21906;50.812;7.132;2024-03-25T11:47:46;3.53;;;2.40;;
4106;SDS011;21906;50.812;7.132;2024-03-25T11:50:14;5.80;;;2.37;;
4106;SDS011;21906;50.812;7.132;2024-03-25T11:52:44;2.50;;;2.30;;
4106;SDS011;21906;50.812;7.132;2024-03-25T11:55:16;2.53;;;2.33;;
4106;SDS011;21906;50.812;7.132;2024-03-25T11:57:42;5.30;;;2.30;;
4106;SDS011;21906;50.812;7.132;2024-03-25T12:00:08;3.60;;;2.10;;
4106;SDS011;21906;50.812;7.132;2024-03-25T12:02:38;3.30;;;2.30;;
4106;SDS011;21906;50.812;7.132;2024-03-25T12:05:08;4.80;;;2.20;;
4106;SDS011;21906;50.812;7.132;2024-03-25T12:07:34;4.57;;;2.30;;
4106;SDS011;21906;50.812;7.132;2024-03-25T12:10:01;2.43;;;2.23;;
4106;SDS011;21906;50.812;7.132;2024-03-25T12:12:45;4.70;;;2.13;;
4106;SDS011;21906;50.812;7.132;2024-03-25T12:15:11;2.90;;;2.67;;
4106;SDS011;21906;50.812;7.132;2024-03-25T12:17:37;3.23;;;2.13;;
4106;SDS011;21906;50.812;7.132;2024-03-25T12:20:07;3.10;;;2.00;;
4106;SDS011;21906;50.812;7.132;2024-03-25T12:22:34;7.80;;;2.30;;
4106;SDS011;21906;50.812;7.132;2024-03-25T12:25:01;4.73;;;2.10;;
4106;SDS011;21906;50.812;7.132;2024-03-25T12:27:29;3.23;;;2.37;;
4106;SDS011;21906;50.812;7.132;2024-03-25T12:30:02;4.63;;;2.50;;
4106;SDS011;21906;50.812;7.132;2024-03-25T12:37:36;4.00;;;2.00;;
4106;SDS011;21906;50.812;7.132;2024-03-25T12:40:02;2.93;;;1.80;;
4106;SDS011;21906;50.812;7.132;2024-03-25T12:42:31;5.10;;;2.60;;
4106;SDS011;21906;50.812;7.132;2024-03-25T12:44:57;5.73;;;1.90;;
4106;SDS011;21906;50.812;7.132;2024-03-25T12:47:23;2.27;;;1.90;;
4106;SDS011;21906;50.812;7.132;2024-03-25T12:49:49;2.17;;;1.97;;
4106;SDS011;21906;50.812;7.132;2024-03-25T12:52:14;3.47;;;1.83;;
4106;SDS011;21906;50.812;7.132;2024-03-25T12:54:40;1.80;;;1.70;;
4106;SDS011;21906;50.812;7.132;2024-03-25T12:57:09;3.03;;;2.20;;
4106;SDS011;21906;50.812;7.132;2024-03-25T12:59:36;3.10;;;2.10;;
4106;SDS011;21906;50.812;7.132;2024-03-25T13:02:01;3.80;;;2.33;;
4106;SDS011;21906;50.812;7.132;2024-03-25T13:04:27;3.73;;;2.40;;
4106;SDS011;21906;50.812;7.132;2024-03-25T13:06:53;2.70;;;2.17;;
4106;SDS011;21906;50.812;7.132;2024-03-25T13:09:19;1.87;;;1.77;;
4106;SDS011;21906;50.812;7.132;2024-03-25T13:11:45;2.40;;;1.77;;
4106;SDS011;21906;50.812;7.132;2024-03-25T13:14:12;2.33;;;2.03;;
4106;SDS011;21906;50.812;7.132;2024-03-25T13:16:38;3.50;;;2.20;;
4106;SDS011;21906;50.812;7.132;2024-03-25T13:19:04;3.07;;;2.17;;
4106;SDS011;21906;50.812;7.132;2024-03-25T13:21:31;5.50;;;2.80;;
4106;SDS011;21906;50.812;7.132;2024-03-25T13:23:57;2.27;;;2.00;;
4106;SDS011;21906;50.812;7.132;2024-03-25T13:26:23;3.70;;;2.50;;
4106;SDS011;21906;50.812;7.132;2024-03-25T13:28:49;2.67;;;2.03;;
4106;SDS011;21906;50.812;7.132;2024-03-25T13:31:15;2.87;;;1.80;;
4106;SDS011;21906;50.812;7.132;2024-03-25T13:33:41;3.43;;;2.00;;
4106;SDS011;21906;50.812;7.132;2024-03-25T13:36:07;3.30;;;1.97;;
4106;SDS011;21906;50.812;7.132;2024-03-25T13:38:33;4.87;;;2.20;;
4106;SDS011;21906;50.812;7.132;2024-03-25T13:40:59;2.17;;;1.97;;
4106;SDS011;21906;50.812;7.132;2024-03-25T13:43:26;2.50;;;2.10;;
4106;SDS011;21906;50.812;7.132;2024-03-25T13:45:52;2.30;;;2.10;;
4106;SDS011;21906;50.812;7.132;2024-03-25T13:48:18;2.17;;;1.70;;
4106;SDS011;21906;50.812;7.132;2024-03-25T13:50:44;1.97;;;1.60;;
4106;SDS011;21906;50.812;7.132;2024-03-25T13:53:11;1.93;;;1.70;;
4106;SDS011;21906;50.812;7.132;2024-03-25T13:55:36;2.67;;;1.83;;
4106;SDS011;21906;50.812;7.132;2024-03-25T13:58:02;2.40;;;2.13;;
4106;SDS011;21906;50.812;7.132;2024-03-25T14:00:30;2.17;;;1.90;;
4106;SDS011;21906;50.812;7.132;2024-03-25T14:03:01;2.90;;;2.17;;
4106;SDS011;21906;50.812;7.132;2024-03-25T14:05:28;4.90;;;2.00;;
4106;SDS011;21906;50.812;7.132;2024-03-25T14:07:54;4.23;;;2.00;;
4106;SDS011;21906;50.812;7.132;2024-03-25T14:10:21;2.13;;;1.60;;
4106;SDS011;21906;50.812;7.132;2024-03-25T14:12:47;3.90;;;2.10;;
4106;SDS011;21906;50.812;7.132;2024-03-25T14:15:13;1.60;;;1.50;;
4106;SDS011;21906;50.812;7.132;2024-03-25T14:17:39;2.23;;;1.90;;
4106;SDS011;21906;50.812;7.132;2024-03-25T14:20:05;3.73;;;1.80;;
4106;SDS011;21906;50.812;7.132;2024-03-25T14:22:32;2.47;;;1.90;;
4106;SDS011;21906;50.812;7.132;2024-03-25T14:24:58;2.87;;;1.83;;
4106;SDS011;21906;50.812;7.132;2024-03-25T14:27:24;2.20;;;2.00;;
4106;SDS011;21906;50.812;7.132;2024-03-25T14:29:51;2.70;;;1.60;;
4106;SDS011;21906;50.812;7.132;2024-03-25T14:32:20;2.30;;;2.10;;
4106;SDS011;21906;50.812;7.132;2024-03-25T14:34:49;2.50;;;2.27;;
4106;SDS011;21906;50.812;7.132;2024-03-25T14:37:15;3.63;;;2.00;;
4106;SDS011;21906;50.812;7.132;2024-03-25T14:39:41;3.43;;;2.10;;
4106;SDS011;21906;50.812;7.132;2024-03-25T14:42:07;2.50;;;1.93;;
4106;SDS011;21906;50.812;7.132;2024-03-25T14:44:37;2.93;;;1.80;;
4106;SDS011;21906;50.812;7.132;2024-03-25T14:47:04;2.50;;;1.90;;
4106;SDS011;21906;50.812;7.132;2024-03-25T14:49:31;2.43;;;1.70;;
4106;SDS011;21906;50.812;7.132;2024-03-25T14:51:57;1.70;;;1.60;;
4106;SDS011;21906;50.812;7.132;2024-03-25T14:54:23;2.63;;;2.10;;
4106;SDS011;21906;50.812;7.132;2024-03-25T14:56:57;1.83;;;1.63;;
4106;SDS011;21906;50.812;7.132;2024-03-25T14:59:23;4.07;;;1.90;;
4106;SDS011;21906;50.812;7.132;2024-03-25T15:01:49;2.30;;;2.10;;